createdAt,value
2022-12-28T00:01:40.367Z,2.20
2022-12-28T00:04:10.580Z,2.10
2022-12-28T00:06:40.890Z,2.28
2022-12-28T00:09:14.758Z,2.17
2022-12-28T00:11:44.947Z,2.05
2022-12-28T00:14:15.239Z,2.25
2022-12-28T00:16:46.959Z,2.25
2022-12-28T00:19:19.718Z,2.20
2022-12-28T00:21:50.562Z,2.20
2022-12-28T00:24:26.420Z,1.90
2022-12-28T00:26:57.351Z,2.10
2022-12-28T00:29:27.790Z,2.20
2022-12-28T00:31:57.615Z,1.90
2022-12-28T00:34:27.419Z,2.15
2022-12-28T00:37:10.369Z,2.03
2022-12-28T00:39:45.103Z,2.10
2022-12-28T00:42:15.520Z,2.25
2022-12-28T00:44:45.880Z,1.83
2022-12-28T00:47:15.953Z,2.20
2022-12-28T00:49:46.324Z,2.10
2022-12-28T00:52:16.441Z,2.05
2022-12-28T00:54:48.585Z,1.95
2022-12-28T00:57:18.950Z,1.95
2022-12-28T00:59:49.080Z,2.13
2022-12-28T01:02:19.352Z,2.25
2022-12-28T01:04:49.862Z,1.90
2022-12-28T01:07:20.392Z,2.13
2022-12-28T01:09:52.711Z,2.20
2022-12-28T01:12:22.731Z,2.05
2022-12-28T01:14:53.164Z,2.00
2022-12-28T01:17:23.706Z,2.20
2022-12-28T01:19:54.149Z,2.08
2022-12-28T01:22:24.831Z,1.95
2022-12-28T01:24:57.402Z,2.20
2022-12-28T01:27:27.698Z,2.13
2022-12-28T01:29:58.025Z,2.13
2022-12-28T01:32:28.588Z,2.10
2022-12-28T01:34:58.173Z,1.85
2022-12-28T01:37:28.519Z,1.85
2022-12-28T01:40:01.036Z,2.00
2022-12-28T01:42:31.053Z,2.10
2022-12-28T01:45:18.163Z,2.00
2022-12-28T01:47:52.308Z,1.80
2022-12-28T01:50:28.803Z,1.98
2022-12-28T01:53:04.488Z,1.90
2022-12-28T01:55:42.259Z,1.90
2022-12-28T01:58:17.627Z,2.00
2022-12-28T02:00:47.436Z,2.10
2022-12-28T02:03:22.735Z,2.13
2022-12-28T02:05:58.153Z,2.03
2022-12-28T02:08:38.528Z,2.20
2022-12-28T02:11:15.424Z,2.05
2022-12-28T02:13:48.782Z,2.28
2022-12-28T02:16:19.017Z,2.10
2022-12-28T02:18:50.758Z,2.20
2022-12-28T02:21:38.805Z,2.15
2022-12-28T02:25:12.710Z,1.92
2022-12-28T02:28:02.869Z,1.90
2022-12-28T02:30:41.926Z,2.08
2022-12-28T02:33:26.525Z,2.15
2022-12-28T02:36:03.758Z,2.20
2022-12-28T02:38:43.827Z,1.90
2022-12-28T02:41:20.965Z,2.00
2022-12-28T02:43:51.368Z,2.17
2022-12-28T02:46:46.305Z,1.95
2022-12-28T02:49:39.079Z,2.00
2022-12-28T02:52:23.253Z,2.20
2022-12-28T02:55:44.415Z,1.98
2022-12-28T02:58:38.324Z,1.83
2022-12-28T03:01:29.672Z,1.80
2022-12-28T03:04:13.976Z,1.80
2022-12-28T03:07:11.633Z,1.88
2022-12-28T03:09:51.197Z,1.83
2022-12-28T03:12:36.333Z,1.70
2022-12-28T03:15:14.578Z,1.85
2022-12-28T03:18:04.496Z,1.92
2022-12-28T03:20:52.121Z,2.00
2022-12-28T03:23:43.300Z,1.80
2022-12-28T03:26:32.278Z,2.00
2022-12-28T03:29:23.887Z,2.20
2022-12-28T03:31:54.325Z,1.70
2022-12-28T03:34:26.758Z,1.65
2022-12-28T03:37:07.341Z,2.05
2022-12-28T03:39:47.699Z,1.77
2022-12-28T03:42:41.042Z,2.00
2022-12-28T03:45:44.991Z,1.70
2022-12-28T03:48:16.743Z,1.75
2022-12-28T03:50:53.185Z,1.88
2022-12-28T03:53:29.200Z,1.75
2022-12-28T03:56:11.076Z,1.75
2022-12-28T03:58:41.162Z,1.80
2022-12-28T04:01:11.889Z,2.30
2022-12-28T04:03:42.479Z,1.77
2022-12-28T04:06:17.118Z,2.00
2022-12-28T04:08:48.833Z,2.08
2022-12-28T04:11:19.371Z,2.00
2022-12-28T04:13:49.635Z,1.67
2022-12-28T04:16:20.580Z,2.17
2022-12-28T04:18:50.582Z,1.95
2022-12-28T04:21:22.536Z,2.13
2022-12-28T04:23:52.802Z,2.00
2022-12-28T04:26:23.768Z,2.10
2022-12-28T04:28:53.840Z,1.92
2022-12-28T04:31:23.956Z,1.92
2022-12-28T04:33:54.382Z,2.05
2022-12-28T04:36:27.012Z,1.90
2022-12-28T04:38:57.418Z,1.92
2022-12-28T04:41:27.866Z,1.90
2022-12-28T04:43:58.724Z,2.00
2022-12-28T04:46:28.871Z,2.00
2022-12-28T04:48:58.689Z,1.77
2022-12-28T04:51:32.410Z,1.67
2022-12-28T04:54:02.643Z,1.90
2022-12-28T04:56:33.117Z,1.90
2022-12-28T04:59:03.737Z,1.90
2022-12-28T05:01:34.440Z,1.83
2022-12-28T05:04:05.022Z,1.98
2022-12-28T05:06:36.464Z,1.90
2022-12-28T05:09:07.115Z,1.98
2022-12-28T05:11:36.943Z,2.08
2022-12-28T05:14:07.212Z,1.83
2022-12-28T05:16:37.474Z,1.52
2022-12-28T05:19:07.807Z,1.90
2022-12-28T05:21:39.857Z,2.00
2022-12-28T05:24:11.022Z,1.95
2022-12-28T05:26:41.408Z,1.92
2022-12-28T05:29:11.952Z,1.80
2022-12-28T05:31:42.206Z,1.83
2022-12-28T05:34:12.477Z,2.00
2022-12-28T05:36:45.196Z,1.83
2022-12-28T05:39:15.603Z,1.80
2022-12-28T05:41:45.953Z,2.13
2022-12-28T05:44:15.887Z,2.05
2022-12-28T05:46:46.258Z,1.98
2022-12-28T05:49:16.478Z,1.85
2022-12-28T05:51:52.141Z,2.08
2022-12-28T05:54:22.143Z,1.95
2022-12-28T05:56:54.373Z,1.90
2022-12-28T05:59:25.256Z,2.10
2022-12-28T06:01:55.463Z,2.28
2022-12-28T06:04:26.030Z,2.17
2022-12-28T06:06:58.127Z,2.17
2022-12-28T06:09:28.431Z,2.20
2022-12-28T06:11:58.726Z,1.90
2022-12-28T06:14:28.703Z,2.05
2022-12-28T06:16:59.096Z,2.17
2022-12-28T06:19:29.494Z,2.13
2022-12-28T06:22:01.712Z,2.10
2022-12-28T06:24:31.991Z,2.15
2022-12-28T06:27:02.196Z,2.15
2022-12-28T06:29:32.659Z,2.15
2022-12-28T06:32:02.457Z,2.40
2022-12-28T06:34:32.826Z,2.20
2022-12-28T06:37:04.664Z,2.20
2022-12-28T06:39:35.025Z,2.00
2022-12-28T06:42:05.492Z,2.00
2022-12-28T06:44:39.279Z,1.92
2022-12-28T06:47:14.995Z,1.90
2022-12-28T06:49:44.812Z,2.15
2022-12-28T06:52:16.325Z,1.98
2022-12-28T06:54:46.543Z,2.05
2022-12-28T06:57:16.528Z,1.92
2022-12-28T06:59:46.473Z,2.08
2022-12-28T07:02:17.098Z,1.88
2022-12-28T07:04:47.669Z,1.77
2022-12-28T07:07:20.185Z,1.75
2022-12-28T07:09:49.862Z,1.70
2022-12-28T07:12:20.207Z,1.70
2022-12-28T07:14:50.486Z,1.73
2022-12-28T07:17:20.804Z,1.60
2022-12-28T07:19:51.840Z,1.83
2022-12-28T07:22:24.145Z,1.80
2022-12-28T07:24:54.353Z,1.83
2022-12-28T07:27:24.717Z,1.80
2022-12-28T07:29:55.161Z,1.75
2022-12-28T07:32:25.060Z,1.75
2022-12-28T07:34:55.490Z,1.90
2022-12-28T07:37:27.719Z,1.70
2022-12-28T07:39:58.197Z,1.90
2022-12-28T07:42:28.649Z,1.80
2022-12-28T07:44:58.768Z,1.60
2022-12-28T07:47:29.021Z,1.70
2022-12-28T07:49:59.021Z,1.90
2022-12-28T07:52:31.091Z,1.80
2022-12-28T07:55:01.545Z,1.70
2022-12-28T07:57:31.622Z,1.75
2022-12-28T08:00:01.897Z,1.98
2022-12-28T08:02:32.482Z,1.80
2022-12-28T08:05:02.487Z,1.98
2022-12-28T08:07:34.649Z,1.83
2022-12-28T08:10:04.995Z,1.33
2022-12-28T08:12:35.422Z,1.50
2022-12-28T08:15:05.894Z,1.13
2022-12-28T08:17:37.486Z,1.13
2022-12-28T08:20:09.677Z,1.30
2022-12-28T08:22:42.009Z,1.40
2022-12-28T08:25:13.728Z,1.38
2022-12-28T08:27:43.546Z,1.27
2022-12-28T08:30:15.144Z,1.10
2022-12-28T08:32:45.002Z,1.40
2022-12-28T08:35:15.322Z,1.33
2022-12-28T08:37:47.477Z,1.30
2022-12-28T08:40:17.884Z,1.23
2022-12-28T08:42:48.113Z,1.40
2022-12-28T08:45:18.553Z,1.27
2022-12-28T08:47:48.380Z,1.52
2022-12-28T08:50:20.206Z,1.42
2022-12-28T08:52:53.837Z,1.50
2022-12-28T08:55:23.739Z,1.50
2022-12-28T08:57:54.040Z,1.40
2022-12-28T09:00:24.397Z,1.60
2022-12-28T09:02:56.212Z,1.48
2022-12-28T09:05:26.732Z,1.58
2022-12-28T09:07:59.826Z,1.90
2022-12-28T09:10:30.197Z,1.70
2022-12-28T09:13:00.504Z,1.50
2022-12-28T09:15:30.281Z,1.40
2022-12-28T09:18:00.022Z,1.55
2022-12-28T09:20:30.084Z,1.48
2022-12-28T09:23:01.853Z,1.50
2022-12-28T09:25:32.098Z,1.33
2022-12-28T09:28:01.877Z,1.70
2022-12-28T09:30:32.361Z,1.27
2022-12-28T09:33:15.511Z,1.45
2022-12-28T09:35:46.082Z,1.55
2022-12-28T09:38:18.984Z,1.40
2022-12-28T09:40:49.356Z,1.52
2022-12-28T09:43:20.125Z,1.30
2022-12-28T09:45:51.206Z,1.42
2022-12-28T09:48:27.075Z,1.60
2022-12-28T09:50:58.348Z,1.40
2022-12-28T09:53:35.544Z,1.80
2022-12-28T09:56:20.039Z,1.50
2022-12-28T09:58:50.458Z,1.40
2022-12-28T10:01:24.372Z,1.80
2022-12-28T10:03:56.115Z,1.63
2022-12-28T10:06:32.675Z,1.55
2022-12-28T10:09:08.404Z,1.52
2022-12-28T10:11:44.075Z,1.60
2022-12-28T10:14:23.429Z,1.50
2022-12-28T10:16:53.939Z,1.50
2022-12-28T10:19:28.731Z,1.73
2022-12-28T10:22:04.958Z,1.63
2022-12-28T10:24:37.654Z,1.70
2022-12-28T10:27:11.185Z,1.63
2022-12-28T10:29:41.660Z,1.60
2022-12-28T10:32:12.981Z,1.55
2022-12-28T10:35:00.272Z,1.65
2022-12-28T10:37:34.857Z,1.48
2022-12-28T10:40:21.231Z,1.65
2022-12-28T10:42:56.731Z,1.60
2022-12-28T10:45:37.311Z,1.70
2022-12-28T10:48:18.442Z,1.52
2022-12-28T10:50:55.888Z,1.73
2022-12-28T10:53:43.878Z,1.58
2022-12-28T10:56:31.797Z,1.42
2022-12-28T10:59:28.241Z,1.40
2022-12-28T11:02:24.592Z,1.48
2022-12-28T11:05:01.237Z,1.55
2022-12-28T11:07:36.407Z,1.60
2022-12-28T11:10:30.605Z,1.50
2022-12-28T11:13:04.453Z,1.77
2022-12-28T11:15:36.183Z,1.70
2022-12-28T11:18:20.563Z,1.58
2022-12-28T11:20:53.559Z,1.70
2022-12-28T11:23:31.915Z,1.48
2022-12-28T11:26:03.295Z,1.50
2022-12-28T11:28:35.572Z,1.38
2022-12-28T11:31:10.099Z,1.67
2022-12-28T11:33:46.920Z,1.60
2022-12-28T11:36:19.892Z,1.58
2022-12-28T11:38:52.987Z,1.55
2022-12-28T11:42:27.715Z,1.52
2022-12-28T11:44:56.731Z,1.40
2022-12-28T11:47:36.004Z,1.48
2022-12-28T11:50:54.359Z,1.35
2022-12-28T11:53:59.333Z,1.42
2022-12-28T11:57:01.143Z,1.30
2022-12-28T11:59:33.604Z,1.33
2022-12-28T12:02:44.221Z,1.40
2022-12-28T12:05:52.953Z,1.50
2022-12-28T12:08:44.712Z,1.35
2022-12-28T12:11:34.303Z,1.40
2022-12-28T12:14:05.413Z,1.45
2022-12-28T12:16:51.090Z,1.52
2022-12-28T12:19:31.079Z,1.40
2022-12-28T12:22:06.049Z,1.50
2022-12-28T12:24:48.364Z,1.40
2022-12-28T12:27:33.246Z,1.17
2022-12-28T12:30:06.632Z,1.70
2022-12-28T12:32:46.627Z,1.60
2022-12-28T12:35:23.529Z,1.50
2022-12-28T12:37:58.527Z,1.60
2022-12-28T12:41:02.219Z,1.65
2022-12-28T12:43:45.927Z,1.52
2022-12-28T12:47:05.636Z,1.60
2022-12-28T12:50:40.785Z,1.38
2022-12-28T12:53:48.534Z,1.65
2022-12-28T12:56:42.004Z,1.55
2022-12-28T12:59:53.910Z,1.48
2022-12-28T13:03:11.560Z,1.65
2022-12-28T13:05:48.833Z,1.50
2022-12-28T13:08:28.937Z,1.67
2022-12-28T13:10:59.273Z,1.58
2022-12-28T13:13:37.008Z,1.50
2022-12-28T13:16:12.717Z,1.58
2022-12-28T13:18:44.934Z,1.60
2022-12-28T13:21:24.033Z,1.58
2022-12-28T13:23:56.827Z,1.65
2022-12-28T13:26:31.346Z,1.45
2022-12-28T13:29:05.144Z,1.45
2022-12-28T13:31:38.613Z,1.30
2022-12-28T13:34:19.929Z,1.50
2022-12-28T13:36:56.889Z,1.45
2022-12-28T13:39:31.584Z,1.52
2022-12-28T13:42:08.346Z,1.30
2022-12-28T13:44:46.512Z,1.40
2022-12-28T13:47:24.625Z,1.42
2022-12-28T13:50:02.331Z,1.48
2022-12-28T13:52:40.262Z,1.60
2022-12-28T13:55:19.783Z,1.58
2022-12-28T13:57:59.757Z,1.50
2022-12-28T14:00:33.046Z,1.60
2022-12-28T14:03:04.318Z,1.60
2022-12-28T14:05:34.733Z,1.50
2022-12-28T14:08:08.915Z,1.70
2022-12-28T14:10:41.705Z,1.58
2022-12-28T14:13:13.624Z,1.80
2022-12-28T14:15:44.497Z,1.33
2022-12-28T14:18:18.998Z,1.52
2022-12-28T14:20:51.302Z,1.48
2022-12-28T14:23:27.646Z,1.42
2022-12-28T14:26:01.797Z,1.40
2022-12-28T14:28:38.591Z,1.60
2022-12-28T14:31:11.886Z,1.27
2022-12-28T14:33:54.989Z,1.48
2022-12-28T14:36:30.797Z,1.55
2022-12-28T14:41:57.712Z,1.50
2022-12-28T14:44:34.789Z,1.60
2022-12-28T14:47:05.488Z,1.80
2022-12-28T14:49:40.332Z,1.55
2022-12-28T14:52:39.308Z,1.45
2022-12-28T14:55:36.755Z,1.58
2022-12-28T14:58:20.804Z,1.25
2022-12-28T15:01:02.389Z,1.70
2022-12-28T15:03:49.643Z,1.67
2022-12-28T15:06:20.344Z,1.58
2022-12-28T15:08:54.553Z,1.80
2022-12-28T15:11:28.287Z,1.73
2022-12-28T15:14:01.213Z,1.60
2022-12-28T15:16:31.474Z,1.73
2022-12-28T15:19:01.321Z,1.60
2022-12-28T15:21:31.202Z,1.73
2022-12-28T15:24:02.129Z,1.70
2022-12-28T15:26:32.241Z,1.88
2022-12-28T15:29:07.842Z,1.90
2022-12-28T15:31:38.100Z,1.90
2022-12-28T15:34:08.422Z,1.80
2022-12-28T15:36:38.682Z,1.95
2022-12-28T15:39:08.591Z,2.00
2022-12-28T15:41:51.769Z,1.90
2022-12-28T15:44:24.620Z,1.70
2022-12-28T15:46:55.077Z,1.75
2022-12-28T15:49:25.476Z,1.75
2022-12-28T15:51:55.870Z,1.83
2022-12-28T15:54:25.588Z,1.92
2022-12-28T15:56:57.285Z,1.65
2022-12-28T15:59:29.509Z,2.08
2022-12-28T16:01:59.595Z,1.75
2022-12-28T16:04:29.762Z,2.20
2022-12-28T16:07:00.655Z,2.08
2022-12-28T16:09:31.256Z,2.10
2022-12-28T16:12:01.499Z,1.90
2022-12-28T16:14:34.599Z,1.75
2022-12-28T16:17:04.358Z,2.08
2022-12-28T16:19:34.608Z,1.85
2022-12-28T16:22:05.121Z,1.88
2022-12-28T16:24:36.595Z,2.00
2022-12-28T16:27:07.326Z,1.67
2022-12-28T16:29:40.200Z,1.88
2022-12-28T16:32:10.653Z,2.10
2022-12-28T16:34:41.120Z,2.00
2022-12-28T16:37:11.473Z,2.10
2022-12-28T16:39:41.073Z,1.92
2022-12-28T16:42:13.320Z,2.15
2022-12-28T16:44:45.684Z,2.00
2022-12-28T16:47:16.170Z,1.90
2022-12-28T16:49:47.644Z,2.15
2022-12-28T16:52:17.956Z,2.25
2022-12-28T16:54:48.170Z,2.40
2022-12-28T16:57:17.943Z,2.10
2022-12-28T16:59:50.280Z,2.20
2022-12-28T17:02:21.029Z,2.17
2022-12-28T17:04:51.017Z,2.03
2022-12-28T17:07:21.171Z,2.40
2022-12-28T17:09:51.455Z,2.10
2022-12-28T17:12:21.585Z,2.13
2022-12-28T17:14:53.654Z,2.38
2022-12-28T17:17:24.051Z,2.38
2022-12-28T17:19:53.928Z,2.20
2022-12-28T17:22:24.371Z,2.15
2022-12-28T17:24:54.143Z,2.50
2022-12-28T17:27:24.367Z,2.53
2022-12-28T17:29:56.306Z,2.30
2022-12-28T17:32:26.264Z,2.63
2022-12-28T17:34:56.714Z,2.40
2022-12-28T17:37:26.459Z,2.45
2022-12-28T17:39:57.185Z,2.30
2022-12-28T17:42:27.527Z,2.25
2022-12-28T17:44:59.690Z,2.05
2022-12-28T17:47:29.645Z,2.30
2022-12-28T17:50:00.560Z,1.83
2022-12-28T17:52:30.895Z,2.10
2022-12-28T17:55:01.245Z,2.30
2022-12-28T17:57:38.279Z,2.13
2022-12-28T18:00:13.317Z,2.30
2022-12-28T18:02:44.091Z,2.25
2022-12-28T18:05:15.260Z,2.63
2022-12-28T18:07:45.775Z,2.22
2022-12-28T18:10:15.868Z,2.25
2022-12-28T18:12:46.384Z,2.60
2022-12-28T18:15:18.939Z,2.40
2022-12-28T18:17:49.065Z,2.40
2022-12-28T18:20:19.176Z,2.55
2022-12-28T18:22:49.114Z,2.35
2022-12-28T18:25:19.543Z,2.50
2022-12-28T18:27:49.664Z,2.22
2022-12-28T18:30:22.636Z,2.30
2022-12-28T18:32:53.080Z,2.45
2022-12-28T18:35:25.724Z,2.80
2022-12-28T18:37:55.448Z,2.83
2022-12-28T18:40:26.169Z,2.80
2022-12-28T18:42:57.912Z,2.30
2022-12-28T18:45:30.411Z,2.50
2022-12-28T18:48:00.783Z,2.33
2022-12-28T18:50:31.053Z,2.70
2022-12-28T18:53:01.129Z,2.38
2022-12-28T18:55:31.545Z,2.70
2022-12-28T18:58:01.591Z,2.40
2022-12-28T19:00:33.207Z,2.45
2022-12-28T19:03:03.631Z,2.15
2022-12-28T19:05:34.092Z,2.00
2022-12-28T19:08:04.152Z,2.10
2022-12-28T19:10:34.080Z,2.15
2022-12-28T19:13:04.467Z,2.08
2022-12-28T19:15:37.143Z,2.33
2022-12-28T19:18:07.638Z,2.13
2022-12-28T19:20:37.660Z,2.25
2022-12-28T19:23:07.608Z,2.28
2022-12-28T19:25:39.162Z,2.00
2022-12-28T19:28:10.359Z,2.30
2022-12-28T19:30:42.800Z,2.17
2022-12-28T19:33:12.970Z,2.40
2022-12-28T19:35:44.223Z,2.40
2022-12-28T19:38:14.518Z,2.42
2022-12-28T19:40:45.167Z,2.40
2022-12-28T19:43:15.228Z,2.40
2022-12-28T19:45:47.431Z,2.30
2022-12-28T19:48:17.650Z,2.38
2022-12-28T19:50:47.684Z,2.30
2022-12-28T19:53:17.721Z,2.53
2022-12-28T19:55:47.971Z,2.28
2022-12-28T19:58:19.698Z,2.40
2022-12-28T20:00:52.218Z,2.55
2022-12-28T20:03:22.727Z,2.33
2022-12-28T20:05:52.857Z,2.45
2022-12-28T20:08:23.225Z,2.47
2022-12-28T20:10:58.918Z,2.53
2022-12-28T20:13:29.360Z,2.75
2022-12-28T20:16:01.853Z,2.67
2022-12-28T20:18:32.412Z,2.70
2022-12-28T20:21:21.430Z,2.70
2022-12-28T20:23:52.928Z,2.30
2022-12-28T20:26:27.457Z,2.83
2022-12-28T20:28:59.238Z,2.72
2022-12-28T20:31:31.933Z,3.00
2022-12-28T20:34:02.181Z,3.17
2022-12-28T20:36:34.282Z,3.22
2022-12-28T20:39:04.970Z,3.40
2022-12-28T20:41:52.605Z,3.60
2022-12-28T20:44:26.838Z,3.05
2022-12-28T20:47:00.384Z,3.13
2022-12-28T20:49:32.141Z,2.88
2022-12-28T20:52:02.150Z,3.17
2022-12-28T20:54:32.720Z,3.33
2022-12-28T20:57:03.894Z,3.38
2022-12-28T20:59:34.487Z,3.17
2022-12-28T21:02:06.556Z,2.95
2022-12-28T21:04:37.237Z,3.08
2022-12-28T21:07:06.929Z,3.10
2022-12-28T21:09:37.851Z,3.13
2022-12-28T21:12:08.507Z,2.60
2022-12-28T21:14:38.695Z,3.13
2022-12-28T21:17:10.712Z,2.70
2022-12-28T21:19:40.581Z,3.10
2022-12-28T21:22:10.945Z,3.20
2022-12-28T21:24:41.232Z,2.90
2022-12-28T21:27:11.587Z,2.90
2022-12-28T21:29:41.617Z,3.30
2022-12-28T21:32:13.480Z,3.00
2022-12-28T21:34:44.047Z,3.00
2022-12-28T21:37:31.119Z,3.10
2022-12-28T21:40:01.533Z,2.90
2022-12-28T21:42:31.767Z,3.17
2022-12-28T21:45:01.527Z,3.10
2022-12-28T21:47:36.263Z,2.92
2022-12-28T21:50:12.134Z,2.72
2022-12-28T21:52:42.485Z,2.97
2022-12-28T21:55:29.872Z,2.97
2022-12-28T21:58:01.458Z,2.83
2022-12-28T22:00:48.554Z,2.95
2022-12-28T22:03:37.439Z,3.13
2022-12-28T22:06:09.695Z,2.83
2022-12-28T22:08:56.234Z,2.83
2022-12-28T22:11:43.329Z,3.15
2022-12-28T22:14:12.998Z,2.78
2022-12-28T22:16:43.147Z,2.95
2022-12-28T22:19:15.629Z,3.00
2022-12-28T22:21:45.759Z,2.80
2022-12-28T22:24:16.190Z,2.72
2022-12-28T22:26:46.805Z,3.10
2022-12-28T22:29:17.537Z,3.05
2022-12-28T22:31:47.992Z,3.03
2022-12-28T22:34:20.615Z,2.90
2022-12-28T22:36:51.000Z,2.97
2022-12-28T22:39:20.425Z,3.03
2022-12-28T22:41:50.681Z,3.17
2022-12-28T22:44:20.499Z,2.88
2022-12-28T22:46:50.714Z,2.95
2022-12-28T22:49:23.044Z,2.90
2022-12-28T22:51:52.854Z,2.97
2022-12-28T22:54:23.407Z,3.25
2022-12-28T22:56:54.289Z,3.30
2022-12-28T22:59:24.645Z,3.40
2022-12-28T23:01:56.491Z,2.92
2022-12-28T23:04:29.319Z,2.83
2022-12-28T23:07:03.658Z,2.80
2022-12-28T23:09:34.530Z,2.88
2022-12-28T23:12:05.189Z,2.95
2022-12-28T23:14:51.943Z,3.20
2022-12-28T23:17:22.271Z,2.95
2022-12-28T23:20:11.614Z,2.88
2022-12-28T23:22:58.651Z,2.92
2022-12-28T23:25:45.906Z,2.80
2022-12-28T23:28:18.570Z,2.72
2022-12-28T23:30:52.057Z,2.95
2022-12-28T23:33:22.443Z,3.28
2022-12-28T23:35:54.718Z,2.90
2022-12-28T23:38:24.781Z,3.22
2022-12-28T23:41:15.135Z,3.20
2022-12-28T23:43:45.009Z,3.03
2022-12-28T23:46:15.438Z,3.13
2022-12-28T23:48:45.472Z,2.88
2022-12-28T23:51:18.330Z,2.97
2022-12-28T23:53:48.844Z,3.00
2022-12-28T23:56:19.130Z,2.78
2022-12-28T23:58:52.515Z,3.33
